Terminal Aerodrome Forecast
Issued by NWS

Home | Current Version | Previous Version | Text Only | Print | Product List | Glossary On
Versions: 1 2 3 4 5 6 7 8 9 10 11 12 13
109
FTPA31 PHFO 282340
TAFHOG
TAF
PHOG 282340Z 2900/2924 07017G25KT P6SM FEW030 SCT050
     FM290600 07010G20KT P6SM VCSH FEW025 SCT045
     FM292000 07017G27KT P6SM FEW030 SCT050=

USA.gov is the U.S. government's official web portal to all federal, state and local government web resources and services.